sensor_id;sensor_type;location;lat;lon;timestamp;P1;durP1;ratioP1;P2;durP2;ratioP2
22606;SDS011;11470;20.968;105.834;2023-04-29T00:02:33;32.20;;;13.05;;
22606;SDS011;11470;20.968;105.834;2023-04-29T00:07:48;25.90;;;11.85;;
22606;SDS011;11470;20.968;105.834;2023-04-29T00:12:53;15.87;;;8.27;;
22606;SDS011;11470;20.968;105.834;2023-04-29T00:17:59;16.27;;;7.05;;
22606;SDS011;11470;20.968;105.834;2023-04-29T00:23:06;17.00;;;8.52;;
22606;SDS011;11470;20.968;105.834;2023-04-29T00:28:12;11.65;;;6.32;;
22606;SDS011;11470;20.968;105.834;2023-04-29T00:33:17;18.25;;;7.03;;
22606;SDS011;11470;20.968;105.834;2023-04-29T00:38:23;12.90;;;5.78;;
22606;SDS011;11470;20.968;105.834;2023-04-29T00:48:34;9.57;;;4.05;;
22606;SDS011;11470;20.968;105.834;2023-04-29T00:53:40;9.00;;;5.47;;
22606;SDS011;11470;20.968;105.834;2023-04-29T01:03:53;9.05;;;4.32;;
22606;SDS011;11470;20.968;105.834;2023-04-29T01:14:09;8.07;;;3.70;;
22606;SDS011;11470;20.968;105.834;2023-04-29T01:24:36;5.53;;;3.55;;
22606;SDS011;11470;20.968;105.834;2023-04-29T01:29:45;6.10;;;3.60;;
22606;SDS011;11470;20.968;105.834;2023-04-29T01:40:33;5.15;;;3.60;;
22606;SDS011;11470;20.968;105.834;2023-04-29T01:45:52;5.28;;;3.90;;
22606;SDS011;11470;20.968;105.834;2023-04-29T01:51:03;5.53;;;3.63;;
22606;SDS011;11470;20.968;105.834;2023-04-29T01:56:10;10.18;;;5.85;;
22606;SDS011;11470;20.968;105.834;2023-04-29T02:01:43;6.85;;;4.03;;
22606;SDS011;11470;20.968;105.834;2023-04-29T02:06:48;7.18;;;5.43;;
22606;SDS011;11470;20.968;105.834;2023-04-29T02:11:56;7.63;;;4.75;;
22606;SDS011;11470;20.968;105.834;2023-04-29T02:17:04;8.02;;;5.15;;
22606;SDS011;11470;20.968;105.834;2023-04-29T02:22:10;10.35;;;5.93;;
22606;SDS011;11470;20.968;105.834;2023-04-29T02:27:18;11.98;;;7.32;;
22606;SDS011;11470;20.968;105.834;2023-04-29T02:32:34;11.60;;;7.83;;
22606;SDS011;11470;20.968;105.834;2023-04-29T02:37:39;10.52;;;8.60;;
22606;SDS011;11470;20.968;105.834;2023-04-29T02:42:46;9.23;;;7.75;;
22606;SDS011;11470;20.968;105.834;2023-04-29T02:47:51;13.30;;;9.25;;
22606;SDS011;11470;20.968;105.834;2023-04-29T02:58:05;11.43;;;9.10;;
22606;SDS011;11470;20.968;105.834;2023-04-29T03:03:11;13.37;;;9.47;;
22606;SDS011;11470;20.968;105.834;2023-04-29T03:08:16;12.60;;;9.05;;
22606;SDS011;11470;20.968;105.834;2023-04-29T03:13:22;11.40;;;7.95;;
22606;SDS011;11470;20.968;105.834;2023-04-29T03:18:28;7.10;;;4.72;;
22606;SDS011;11470;20.968;105.834;2023-04-29T03:23:33;13.20;;;8.23;;
22606;SDS011;11470;20.968;105.834;2023-04-29T03:28:39;14.57;;;9.20;;
22606;SDS011;11470;20.968;105.834;2023-04-29T03:33:48;12.90;;;8.18;;
22606;SDS011;11470;20.968;105.834;2023-04-29T03:38:55;15.75;;;9.68;;
22606;SDS011;11470;20.968;105.834;2023-04-29T03:44:08;14.25;;;9.20;;
22606;SDS011;11470;20.968;105.834;2023-04-29T03:49:17;9.98;;;6.82;;
22606;SDS011;11470;20.968;105.834;2023-04-29T03:59:29;12.50;;;8.48;;
22606;SDS011;11470;20.968;105.834;2023-04-29T04:04:37;16.38;;;11.80;;
22606;SDS011;11470;20.968;105.834;2023-04-29T04:09:44;13.15;;;8.93;;
22606;SDS011;11470;20.968;105.834;2023-04-29T04:14:51;17.73;;;13.57;;
22606;SDS011;11470;20.968;105.834;2023-04-29T04:20:01;16.55;;;13.38;;
22606;SDS011;11470;20.968;105.834;2023-04-29T04:25:07;18.20;;;13.15;;
22606;SDS011;11470;20.968;105.834;2023-04-29T04:30:31;22.40;;;16.15;;
22606;SDS011;11470;20.968;105.834;2023-04-29T04:35:40;17.92;;;11.85;;
22606;SDS011;11470;20.968;105.834;2023-04-29T04:40:46;17.05;;;11.27;;
22606;SDS011;11470;20.968;105.834;2023-04-29T04:46:08;14.70;;;8.32;;
22606;SDS011;11470;20.968;105.834;2023-04-29T04:51:43;15.98;;;9.68;;
22606;SDS011;11470;20.968;105.834;2023-04-29T04:56:49;15.43;;;12.63;;
22606;SDS011;11470;20.968;105.834;2023-04-29T05:01:55;19.30;;;11.00;;
22606;SDS011;11470;20.968;105.834;2023-04-29T05:07:01;12.98;;;9.48;;
22606;SDS011;11470;20.968;105.834;2023-04-29T05:12:22;13.57;;;7.05;;
22606;SDS011;11470;20.968;105.834;2023-04-29T05:17:34;14.52;;;11.05;;
22606;SDS011;11470;20.968;105.834;2023-04-29T05:22:40;10.43;;;6.93;;
22606;SDS011;11470;20.968;105.834;2023-04-29T05:27:48;13.88;;;9.27;;
22606;SDS011;11470;20.968;105.834;2023-04-29T05:32:54;13.93;;;10.10;;
22606;SDS011;11470;20.968;105.834;2023-04-29T05:38:02;13.43;;;10.10;;
22606;SDS011;11470;20.968;105.834;2023-04-29T05:43:27;13.80;;;9.63;;
22606;SDS011;11470;20.968;105.834;2023-04-29T05:48:35;11.93;;;10.00;;
22606;SDS011;11470;20.968;105.834;2023-04-29T05:58:45;15.30;;;10.05;;
22606;SDS011;11470;20.968;105.834;2023-04-29T06:03:51;9.80;;;6.03;;
22606;SDS011;11470;20.968;105.834;2023-04-29T06:09:15;10.88;;;8.45;;
22606;SDS011;11470;20.968;105.834;2023-04-29T06:14:35;12.07;;;8.07;;
22606;SDS011;11470;20.968;105.834;2023-04-29T06:19:41;11.25;;;5.63;;
22606;SDS011;11470;20.968;105.834;2023-04-29T06:24:46;11.50;;;7.22;;
22606;SDS011;11470;20.968;105.834;2023-04-29T06:30:18;12.75;;;8.70;;
22606;SDS011;11470;20.968;105.834;2023-04-29T06:35:29;8.38;;;6.70;;
22606;SDS011;11470;20.968;105.834;2023-04-29T06:40:45;10.13;;;6.00;;
22606;SDS011;11470;20.968;105.834;2023-04-29T06:45:56;10.48;;;6.32;;
22606;SDS011;11470;20.968;105.834;2023-04-29T06:51:17;9.30;;;6.85;;
22606;SDS011;11470;20.968;105.834;2023-04-29T06:56:27;11.73;;;7.75;;
22606;SDS011;11470;20.968;105.834;2023-04-29T07:01:43;9.95;;;6.88;;
22606;SDS011;11470;20.968;105.834;2023-04-29T07:06:57;9.35;;;6.47;;
22606;SDS011;11470;20.968;105.834;2023-04-29T07:12:08;13.35;;;7.72;;
22606;SDS011;11470;20.968;105.834;2023-04-29T07:17:15;11.48;;;7.78;;
22606;SDS011;11470;20.968;105.834;2023-04-29T07:22:20;10.32;;;7.05;;
22606;SDS011;11470;20.968;105.834;2023-04-29T07:27:26;6.53;;;5.27;;
22606;SDS011;11470;20.968;105.834;2023-04-29T07:37:39;6.45;;;5.15;;
22606;SDS011;11470;20.968;105.834;2023-04-29T07:42:47;4.15;;;3.75;;
22606;SDS011;11470;20.968;105.834;2023-04-29T07:47:53;8.40;;;4.65;;
22606;SDS011;11470;20.968;105.834;2023-04-29T07:52:58;8.77;;;5.45;;
22606;SDS011;11470;20.968;105.834;2023-04-29T07:58:05;6.90;;;4.70;;
22606;SDS011;11470;20.968;105.834;2023-04-29T08:08:20;7.18;;;5.50;;
22606;SDS011;11470;20.968;105.834;2023-04-29T08:13:25;6.15;;;4.38;;
22606;SDS011;11470;20.968;105.834;2023-04-29T08:18:31;9.55;;;6.10;;
22606;SDS011;11470;20.968;105.834;2023-04-29T08:23:37;6.03;;;3.83;;
22606;SDS011;11470;20.968;105.834;2023-04-29T08:28:43;7.05;;;5.05;;
22606;SDS011;11470;20.968;105.834;2023-04-29T08:38:54;8.10;;;4.20;;
22606;SDS011;11470;20.968;105.834;2023-04-29T08:43:59;9.48;;;5.05;;
22606;SDS011;11470;20.968;105.834;2023-04-29T08:49:06;7.55;;;5.63;;
22606;SDS011;11470;20.968;105.834;2023-04-29T08:54:12;6.95;;;3.90;;
22606;SDS011;11470;20.968;105.834;2023-04-29T08:59:18;6.20;;;3.83;;
22606;SDS011;11470;20.968;105.834;2023-04-29T09:09:45;8.40;;;3.85;;
22606;SDS011;11470;20.968;105.834;2023-04-29T09:14:53;5.90;;;4.70;;
22606;SDS011;11470;20.968;105.834;2023-04-29T09:20:02;6.20;;;3.47;;
22606;SDS011;11470;20.968;105.834;2023-04-29T09:25:25;5.22;;;3.60;;
22606;SDS011;11470;20.968;105.834;2023-04-29T09:30:31;5.38;;;3.67;;
22606;SDS011;11470;20.968;105.834;2023-04-29T09:35:38;5.18;;;3.45;;
22606;SDS011;11470;20.968;105.834;2023-04-29T09:40:45;5.88;;;3.35;;
22606;SDS011;11470;20.968;105.834;2023-04-29T09:46:01;5.93;;;3.75;;
22606;SDS011;11470;20.968;105.834;2023-04-29T09:51:06;6.78;;;3.10;;
22606;SDS011;11470;20.968;105.834;2023-04-29T10:01:20;7.00;;;4.82;;
22606;SDS011;11470;20.968;105.834;2023-04-29T10:06:28;6.32;;;4.93;;
22606;SDS011;11470;20.968;105.834;2023-04-29T10:11:33;7.32;;;4.18;;
22606;SDS011;11470;20.968;105.834;2023-04-29T10:16:46;6.78;;;5.18;;
22606;SDS011;11470;20.968;105.834;2023-04-29T10:21:54;6.43;;;4.90;;
22606;SDS011;11470;20.968;105.834;2023-04-29T10:27:07;8.30;;;4.28;;
22606;SDS011;11470;20.968;105.834;2023-04-29T10:32:15;11.25;;;4.03;;
22606;SDS011;11470;20.968;105.834;2023-04-29T10:37:21;9.07;;;5.05;;
22606;SDS011;11470;20.968;105.834;2023-04-29T10:42:41;7.88;;;5.18;;
22606;SDS011;11470;20.968;105.834;2023-04-29T10:53:08;7.15;;;4.95;;
22606;SDS011;11470;20.968;105.834;2023-04-29T11:03:53;12.45;;;5.72;;
22606;SDS011;11470;20.968;105.834;2023-04-29T11:09:12;12.80;;;6.32;;
22606;SDS011;11470;20.968;105.834;2023-04-29T11:19:49;13.77;;;6.88;;
22606;SDS011;11470;20.968;105.834;2023-04-29T11:25:00;6.43;;;5.50;;
22606;SDS011;11470;20.968;105.834;2023-04-29T11:30:14;8.50;;;6.00;;
22606;SDS011;11470;20.968;105.834;2023-04-29T11:40:25;10.25;;;6.38;;
22606;SDS011;11470;20.968;105.834;2023-04-29T11:45:34;13.63;;;9.57;;
22606;SDS011;11470;20.968;105.834;2023-04-29T11:50:40;13.20;;;9.50;;
22606;SDS011;11470;20.968;105.834;2023-04-29T11:55:49;13.35;;;8.70;;
22606;SDS011;11470;20.968;105.834;2023-04-29T12:00:59;9.80;;;6.63;;
22606;SDS011;11470;20.968;105.834;2023-04-29T12:06:06;14.80;;;9.48;;
22606;SDS011;11470;20.968;105.834;2023-04-29T12:11:11;8.77;;;5.70;;
22606;SDS011;11470;20.968;105.834;2023-04-29T12:16:17;11.38;;;7.78;;
22606;SDS011;11470;20.968;105.834;2023-04-29T12:21:23;14.55;;;11.20;;
22606;SDS011;11470;20.968;105.834;2023-04-29T12:26:30;13.35;;;9.23;;
22606;SDS011;11470;20.968;105.834;2023-04-29T12:36:42;15.05;;;11.75;;
22606;SDS011;11470;20.968;105.834;2023-04-29T12:41:48;16.85;;;10.30;;
22606;SDS011;11470;20.968;105.834;2023-04-29T12:47:04;12.68;;;9.00;;
22606;SDS011;11470;20.968;105.834;2023-04-29T12:52:14;23.27;;;13.88;;
22606;SDS011;11470;20.968;105.834;2023-04-29T13:02:25;27.60;;;19.30;;
22606;SDS011;11470;20.968;105.834;2023-04-29T13:07:33;26.23;;;19.20;;
22606;SDS011;11470;20.968;105.834;2023-04-29T13:12:38;26.70;;;19.30;;
22606;SDS011;11470;20.968;105.834;2023-04-29T13:17:44;27.63;;;19.83;;
22606;SDS011;11470;20.968;105.834;2023-04-29T13:22:49;22.30;;;17.60;;
22606;SDS011;11470;20.968;105.834;2023-04-29T13:27:57;21.95;;;17.20;;
22606;SDS011;11470;20.968;105.834;2023-04-29T13:33:02;24.33;;;18.08;;
22606;SDS011;11470;20.968;105.834;2023-04-29T13:38:14;19.52;;;14.70;;
22606;SDS011;11470;20.968;105.834;2023-04-29T13:43:21;23.65;;;17.00;;
22606;SDS011;11470;20.968;105.834;2023-04-29T13:48:40;21.02;;;16.42;;
22606;SDS011;11470;20.968;105.834;2023-04-29T13:59:32;19.42;;;14.32;;
22606;SDS011;11470;20.968;105.834;2023-04-29T14:04:58;25.48;;;17.30;;
22606;SDS011;11470;20.968;105.834;2023-04-29T14:10:04;22.60;;;17.08;;
22606;SDS011;11470;20.968;105.834;2023-04-29T14:15:10;21.95;;;16.67;;
22606;SDS011;11470;20.968;105.834;2023-04-29T14:20:19;23.25;;;17.08;;
22606;SDS011;11470;20.968;105.834;2023-04-29T14:25:31;24.25;;;16.15;;
22606;SDS011;11470;20.968;105.834;2023-04-29T14:30:37;25.83;;;17.95;;
22606;SDS011;11470;20.968;105.834;2023-04-29T14:35:46;21.10;;;16.08;;
22606;SDS011;11470;20.968;105.834;2023-04-29T14:40:52;19.52;;;14.07;;
22606;SDS011;11470;20.968;105.834;2023-04-29T14:45:57;17.02;;;11.85;;
22606;SDS011;11470;20.968;105.834;2023-04-29T14:56:09;21.20;;;15.55;;
22606;SDS011;11470;20.968;105.834;2023-04-29T15:01:14;24.48;;;14.32;;
22606;SDS011;11470;20.968;105.834;2023-04-29T15:06:20;25.33;;;15.25;;
22606;SDS011;11470;20.968;105.834;2023-04-29T15:11:25;22.38;;;12.80;;
22606;SDS011;11470;20.968;105.834;2023-04-29T15:16:31;24.33;;;15.98;;
22606;SDS011;11470;20.968;105.834;2023-04-29T15:21:37;29.13;;;17.00;;
22606;SDS011;11470;20.968;105.834;2023-04-29T15:26:43;17.65;;;10.98;;
22606;SDS011;11470;20.968;105.834;2023-04-29T15:31:49;24.05;;;16.75;;
22606;SDS011;11470;20.968;105.834;2023-04-29T15:37:04;27.45;;;16.77;;
22606;SDS011;11470;20.968;105.834;2023-04-29T15:42:09;28.53;;;16.07;;
22606;SDS011;11470;20.968;105.834;2023-04-29T15:52:19;21.77;;;14.10;;
22606;SDS011;11470;20.968;105.834;2023-04-29T15:57:25;22.55;;;15.70;;
22606;SDS011;11470;20.968;105.834;2023-04-29T16:02:31;27.17;;;16.20;;
22606;SDS011;11470;20.968;105.834;2023-04-29T16:07:37;26.92;;;15.82;;
22606;SDS011;11470;20.968;105.834;2023-04-29T16:12:43;26.80;;;15.65;;
22606;SDS011;11470;20.968;105.834;2023-04-29T16:17:49;26.25;;;14.10;;
22606;SDS011;11470;20.968;105.834;2023-04-29T16:22:56;24.45;;;15.32;;
22606;SDS011;11470;20.968;105.834;2023-04-29T16:28:04;23.73;;;14.20;;
22606;SDS011;11470;20.968;105.834;2023-04-29T16:33:09;22.90;;;14.63;;
22606;SDS011;11470;20.968;105.834;2023-04-29T16:38:19;27.92;;;15.73;;
22606;SDS011;11470;20.968;105.834;2023-04-29T16:43:24;22.45;;;14.82;;
22606;SDS011;11470;20.968;105.834;2023-04-29T16:48:30;22.63;;;15.20;;
22606;SDS011;11470;20.968;105.834;2023-04-29T16:53:36;25.35;;;15.27;;
22606;SDS011;11470;20.968;105.834;2023-04-29T16:58:41;32.70;;;18.50;;
22606;SDS011;11470;20.968;105.834;2023-04-29T17:03:55;27.98;;;17.88;;
22606;SDS011;11470;20.968;105.834;2023-04-29T17:09:01;40.08;;;26.33;;
22606;SDS011;11470;20.968;105.834;2023-04-29T17:14:07;34.15;;;23.05;;
22606;SDS011;11470;20.968;105.834;2023-04-29T17:19:12;31.45;;;20.02;;
22606;SDS011;11470;20.968;105.834;2023-04-29T17:24:18;29.77;;;17.90;;
22606;SDS011;11470;20.968;105.834;2023-04-29T17:29:23;31.58;;;19.95;;
22606;SDS011;11470;20.968;105.834;2023-04-29T17:39:34;26.63;;;16.80;;
22606;SDS011;11470;20.968;105.834;2023-04-29T17:44:39;25.05;;;15.30;;
22606;SDS011;11470;20.968;105.834;2023-04-29T17:49:45;22.90;;;14.82;;
22606;SDS011;11470;20.968;105.834;2023-04-29T17:54:51;20.58;;;13.75;;
22606;SDS011;11470;20.968;105.834;2023-04-29T17:59:58;25.38;;;16.38;;
22606;SDS011;11470;20.968;105.834;2023-04-29T18:05:06;20.05;;;13.48;;
22606;SDS011;11470;20.968;105.834;2023-04-29T18:10:11;20.00;;;12.63;;
22606;SDS011;11470;20.968;105.834;2023-04-29T18:15:16;18.97;;;13.40;;
22606;SDS011;11470;20.968;105.834;2023-04-29T18:20:25;23.05;;;14.93;;
22606;SDS011;11470;20.968;105.834;2023-04-29T18:25:30;17.80;;;12.93;;
22606;SDS011;11470;20.968;105.834;2023-04-29T18:30:40;18.25;;;12.95;;
22606;SDS011;11470;20.968;105.834;2023-04-29T18:35:47;17.52;;;11.02;;
22606;SDS011;11470;20.968;105.834;2023-04-29T18:40:56;22.45;;;13.13;;
22606;SDS011;11470;20.968;105.834;2023-04-29T18:46:02;16.58;;;11.02;;
22606;SDS011;11470;20.968;105.834;2023-04-29T18:51:08;21.48;;;12.57;;
22606;SDS011;11470;20.968;105.834;2023-04-29T18:56:13;16.67;;;10.30;;
22606;SDS011;11470;20.968;105.834;2023-04-29T19:01:18;17.87;;;10.77;;
22606;SDS011;11470;20.968;105.834;2023-04-29T19:06:24;12.80;;;8.07;;
22606;SDS011;11470;20.968;105.834;2023-04-29T19:11:32;14.35;;;8.75;;
22606;SDS011;11470;20.968;105.834;2023-04-29T19:16:38;12.98;;;9.13;;
22606;SDS011;11470;20.968;105.834;2023-04-29T19:21:43;14.07;;;8.35;;
22606;SDS011;11470;20.968;105.834;2023-04-29T19:26:50;15.52;;;7.75;;
22606;SDS011;11470;20.968;105.834;2023-04-29T19:31:55;12.52;;;8.68;;
22606;SDS011;11470;20.968;105.834;2023-04-29T19:37:01;13.82;;;8.60;;
22606;SDS011;11470;20.968;105.834;2023-04-29T19:42:07;10.15;;;7.28;;
22606;SDS011;11470;20.968;105.834;2023-04-29T19:47:12;12.93;;;7.22;;
22606;SDS011;11470;20.968;105.834;2023-04-29T19:52:18;8.85;;;5.88;;
22606;SDS011;11470;20.968;105.834;2023-04-29T19:57:24;12.73;;;6.22;;
22606;SDS011;11470;20.968;105.834;2023-04-29T20:02:31;13.77;;;7.38;;
22606;SDS011;11470;20.968;105.834;2023-04-29T20:07:38;10.88;;;6.40;;
22606;SDS011;11470;20.968;105.834;2023-04-29T20:12:43;13.82;;;6.95;;
22606;SDS011;11470;20.968;105.834;2023-04-29T20:17:49;11.63;;;6.35;;
22606;SDS011;11470;20.968;105.834;2023-04-29T20:22:54;12.27;;;6.47;;
22606;SDS011;11470;20.968;105.834;2023-04-29T20:28:03;13.50;;;8.25;;
22606;SDS011;11470;20.968;105.834;2023-04-29T20:33:08;12.20;;;6.45;;
22606;SDS011;11470;20.968;105.834;2023-04-29T20:38:14;15.77;;;6.88;;
22606;SDS011;11470;20.968;105.834;2023-04-29T20:48:25;11.23;;;6.25;;
22606;SDS011;11470;20.968;105.834;2023-04-29T20:53:31;9.82;;;6.43;;
22606;SDS011;11470;20.968;105.834;2023-04-29T20:58:36;10.67;;;6.10;;
22606;SDS011;11470;20.968;105.834;2023-04-29T21:03:41;13.77;;;6.77;;
22606;SDS011;11470;20.968;105.834;2023-04-29T21:08:49;11.43;;;6.03;;
22606;SDS011;11470;20.968;105.834;2023-04-29T21:13:54;13.37;;;7.43;;
22606;SDS011;11470;20.968;105.834;2023-04-29T21:19:00;15.27;;;7.82;;
22606;SDS011;11470;20.968;105.834;2023-04-29T21:24:05;14.40;;;8.10;;
22606;SDS011;11470;20.968;105.834;2023-04-29T21:29:11;12.93;;;7.32;;
22606;SDS011;11470;20.968;105.834;2023-04-29T21:34:17;11.85;;;7.38;;
22606;SDS011;11470;20.968;105.834;2023-04-29T21:39:22;15.90;;;7.43;;
22606;SDS011;11470;20.968;105.834;2023-04-29T21:44:28;19.35;;;7.82;;
22606;SDS011;11470;20.968;105.834;2023-04-29T21:49:33;13.13;;;7.67;;
22606;SDS011;11470;20.968;105.834;2023-04-29T21:59:47;13.35;;;7.38;;
22606;SDS011;11470;20.968;105.834;2023-04-29T22:04:54;13.23;;;7.30;;
22606;SDS011;11470;20.968;105.834;2023-04-29T22:10:00;12.70;;;6.22;;
22606;SDS011;11470;20.968;105.834;2023-04-29T22:15:05;16.48;;;6.45;;
22606;SDS011;11470;20.968;105.834;2023-04-29T22:20:28;15.77;;;5.90;;
22606;SDS011;11470;20.968;105.834;2023-04-29T22:25:33;9.45;;;5.07;;
22606;SDS011;11470;20.968;105.834;2023-04-29T22:30:40;9.32;;;4.43;;
22606;SDS011;11470;20.968;105.834;2023-04-29T22:35:50;12.27;;;5.70;;
22606;SDS011;11470;20.968;105.834;2023-04-29T22:40:56;10.05;;;5.45;;
22606;SDS011;11470;20.968;105.834;2023-04-29T22:46:01;10.07;;;6.18;;
22606;SDS011;11470;20.968;105.834;2023-04-29T22:51:07;11.25;;;6.25;;
22606;SDS011;11470;20.968;105.834;2023-04-29T22:56:13;13.32;;;7.43;;
22606;SDS011;11470;20.968;105.834;2023-04-29T23:01:18;11.68;;;5.40;;
22606;SDS011;11470;20.968;105.834;2023-04-29T23:06:28;10.20;;;5.85;;
22606;SDS011;11470;20.968;105.834;2023-04-29T23:11:33;11.98;;;7.63;;
22606;SDS011;11470;20.968;105.834;2023-04-29T23:16:39;9.00;;;5.50;;
22606;SDS011;11470;20.968;105.834;2023-04-29T23:21:45;11.90;;;6.65;;
22606;SDS011;11470;20.968;105.834;2023-04-29T23:26:51;16.40;;;7.53;;
22606;SDS011;11470;20.968;105.834;2023-04-29T23:31:56;14.53;;;7.37;;
22606;SDS011;11470;20.968;105.834;2023-04-29T23:37:01;10.37;;;5.83;;
22606;SDS011;11470;20.968;105.834;2023-04-29T23:42:07;8.13;;;4.28;;
22606;SDS011;11470;20.968;105.834;2023-04-29T23:47:12;13.38;;;5.15;;
22606;SDS011;11470;20.968;105.834;2023-04-29T23:52:18;11.93;;;6.28;;
22606;SDS011;11470;20.968;105.834;2023-04-29T23:57:23;13.37;;;5.33;;
